createdAt,value
2022-09-28T00:01:07.187Z,4.95
2022-09-28T00:03:35.289Z,6.13
2022-09-28T00:06:04.324Z,5.05
2022-09-28T00:08:32.566Z,6.03
2022-09-28T00:11:00.543Z,3.80
2022-09-28T00:13:29.436Z,9.00
2022-09-28T00:16:03.402Z,7.85
2022-09-28T00:18:32.262Z,4.78
2022-09-28T00:21:01.544Z,7.13
2022-09-28T00:23:29.517Z,5.07
2022-09-28T00:25:57.595Z,6.70
2022-09-28T00:28:25.546Z,4.53
2022-09-28T00:30:56.427Z,5.05
2022-09-28T00:33:25.787Z,4.43
2022-09-28T00:35:57.562Z,6.20
2022-09-28T00:38:28.114Z,3.65
2022-09-28T00:40:56.652Z,3.25
2022-09-28T00:43:25.556Z,6.07
2022-09-28T00:45:58.034Z,3.30
2022-09-28T00:48:29.148Z,2.88
2022-09-28T00:50:57.655Z,3.55
2022-09-28T00:53:27.947Z,4.72
2022-09-28T00:55:56.763Z,3.53
2022-09-28T00:58:28.199Z,5.35
2022-09-28T01:00:57.177Z,3.93
2022-09-28T01:03:26.817Z,4.10
2022-09-28T01:05:56.549Z,3.53
2022-09-28T01:08:27.187Z,3.08
2022-09-28T01:10:55.319Z,5.05
2022-09-28T01:13:23.875Z,5.55
2022-09-28T01:15:59.098Z,4.28
2022-09-28T01:18:33.997Z,4.60
2022-09-28T01:21:03.905Z,5.97
2022-09-28T01:24:06.006Z,5.90
2022-09-28T01:26:48.944Z,5.30
2022-09-28T01:29:22.624Z,8.05
2022-09-28T01:31:55.666Z,5.85
2022-09-28T01:34:27.338Z,5.25
2022-09-28T01:36:57.241Z,4.45
2022-09-28T01:39:28.748Z,7.53
2022-09-28T01:42:01.050Z,6.23
2022-09-28T01:47:03.505Z,5.75
2022-09-28T01:49:35.418Z,7.25
2022-09-28T01:52:08.121Z,6.75
2022-09-28T01:54:39.923Z,8.23
2022-09-28T01:57:11.681Z,6.93
2022-09-28T01:59:42.943Z,7.55
2022-09-28T02:02:15.028Z,9.00
2022-09-28T02:04:46.810Z,7.75
2022-09-28T02:07:18.357Z,7.63
2022-09-28T02:09:50.021Z,7.43
2022-09-28T02:12:24.899Z,7.97
2022-09-28T02:14:56.099Z,8.20
2022-09-28T02:17:24.044Z,6.88
2022-09-28T02:19:51.968Z,8.38
2022-09-28T02:22:26.307Z,7.82
2022-09-28T02:24:56.595Z,6.97
2022-09-28T02:27:33.160Z,9.30
2022-09-28T02:30:01.393Z,9.57
2022-09-28T02:32:29.945Z,9.20
2022-09-28T02:34:58.024Z,9.25
2022-09-28T02:37:26.467Z,8.73
2022-09-28T02:39:54.638Z,12.07
2022-09-28T02:42:25.910Z,8.18
2022-09-28T02:45:04.127Z,7.80
2022-09-28T02:47:48.979Z,15.10
2022-09-28T02:50:22.089Z,11.70
2022-09-28T02:53:02.714Z,9.10
2022-09-28T02:55:41.285Z,10.73
2022-09-28T02:58:20.349Z,8.48
2022-09-28T03:00:54.228Z,12.63
2022-09-28T03:03:43.535Z,8.82
2022-09-28T03:06:16.224Z,15.20
2022-09-28T03:08:46.889Z,10.60
2022-09-28T03:11:18.069Z,12.68
2022-09-28T03:13:46.332Z,10.45
2022-09-28T03:16:17.299Z,15.15
2022-09-28T03:18:45.729Z,14.70
2022-09-28T03:21:14.760Z,16.27
2022-09-28T03:23:43.469Z,13.38
2022-09-28T03:26:12.197Z,14.05
2022-09-28T03:28:40.541Z,13.57
2022-09-28T03:31:08.569Z,14.32
2022-09-28T03:33:37.923Z,14.65
2022-09-28T03:36:08.584Z,13.65
2022-09-28T03:38:36.586Z,11.93
2022-09-28T03:41:04.710Z,15.65
2022-09-28T03:43:32.630Z,12.50
2022-09-28T03:46:02.277Z,15.93
2022-09-28T03:48:33.000Z,14.75
2022-09-28T03:51:04.476Z,15.55
2022-09-28T03:53:34.103Z,19.35
2022-09-28T03:56:06.122Z,18.48
2022-09-28T03:58:34.029Z,14.65
2022-09-28T04:01:03.293Z,16.85
2022-09-28T04:03:31.559Z,18.38
2022-09-28T04:05:59.603Z,20.52
2022-09-28T04:08:28.850Z,18.55
2022-09-28T04:10:58.310Z,17.08
2022-09-28T04:13:26.496Z,16.38
2022-09-28T04:15:55.396Z,14.52
2022-09-28T04:18:24.161Z,19.77
2022-09-28T04:21:00.097Z,20.50
2022-09-28T04:23:29.710Z,19.70
2022-09-28T04:25:57.669Z,19.60
2022-09-28T04:28:43.588Z,20.35
2022-09-28T04:31:12.320Z,20.25
2022-09-28T04:33:40.328Z,15.82
2022-09-28T04:36:09.413Z,21.38
2022-09-28T04:38:52.407Z,23.02
2022-09-28T04:41:22.406Z,22.90
2022-09-28T04:43:50.946Z,20.70
2022-09-28T04:46:19.323Z,23.30
2022-09-28T04:48:47.462Z,20.10
2022-09-28T04:51:15.377Z,18.75
2022-09-28T04:53:44.609Z,21.65
2022-09-28T04:56:13.863Z,22.10
2022-09-28T04:58:41.932Z,24.05
2022-09-28T05:01:12.741Z,23.52
2022-09-28T05:03:40.913Z,21.58
2022-09-28T05:06:09.118Z,24.27
2022-09-28T05:08:37.077Z,19.45
2022-09-28T05:11:07.902Z,22.63
2022-09-28T05:13:41.743Z,21.02
2022-09-28T05:16:10.505Z,20.67
2022-09-28T05:18:38.555Z,23.60
2022-09-28T05:21:11.073Z,22.33
2022-09-28T05:23:39.120Z,18.80
2022-09-28T05:26:08.629Z,19.25
2022-09-28T05:28:36.589Z,22.88
2022-09-28T05:31:05.793Z,20.00
2022-09-28T05:33:34.115Z,24.42
2022-09-28T05:36:02.602Z,16.85
2022-09-28T05:38:30.966Z,17.67
2022-09-28T05:41:02.082Z,18.15
2022-09-28T05:43:34.080Z,18.63
2022-09-28T05:46:02.079Z,18.33
2022-09-28T05:48:30.492Z,17.17
2022-09-28T05:50:59.667Z,23.90
2022-09-28T05:53:27.584Z,20.55
2022-09-28T05:55:58.683Z,17.15
2022-09-28T05:58:26.641Z,15.50
2022-09-28T06:00:57.217Z,16.15
2022-09-28T06:03:25.947Z,12.77
2022-09-28T06:05:54.197Z,12.82
2022-09-28T06:08:22.235Z,12.18
2022-09-28T06:10:50.200Z,11.48
2022-09-28T06:13:18.205Z,13.85
2022-09-28T06:15:47.232Z,10.38
2022-09-28T06:18:16.503Z,10.70
2022-09-28T06:20:44.614Z,10.30
2022-09-28T06:23:13.851Z,12.27
2022-09-28T06:25:41.815Z,9.60
2022-09-28T06:28:11.774Z,8.77
2022-09-28T06:30:40.439Z,15.18
2022-09-28T06:33:11.328Z,12.27
2022-09-28T06:35:41.027Z,7.65
2022-09-28T06:38:09.481Z,7.78
2022-09-28T06:40:37.854Z,7.90
2022-09-28T06:43:10.220Z,8.40
2022-09-28T06:48:07.103Z,8.45
2022-09-28T06:50:37.383Z,7.97
2022-09-28T06:53:09.389Z,7.32
2022-09-28T06:55:39.861Z,6.20
2022-09-28T06:58:11.152Z,7.93
2022-09-28T07:00:40.098Z,7.32
2022-09-28T07:03:11.283Z,7.90
2022-09-28T07:05:42.272Z,8.43
2022-09-28T07:08:11.961Z,8.45
2022-09-28T07:10:43.038Z,8.40
2022-09-28T07:13:30.322Z,9.50
2022-09-28T07:16:00.055Z,7.70
2022-09-28T07:18:30.026Z,10.68
2022-09-28T07:20:58.275Z,8.55
2022-09-28T07:23:41.121Z,8.38
2022-09-28T07:26:19.357Z,13.50
2022-09-28T07:28:49.753Z,10.05
2022-09-28T07:31:17.705Z,9.80
2022-09-28T07:33:47.122Z,8.18
2022-09-28T07:36:17.837Z,7.88
2022-09-28T07:38:47.381Z,9.20
2022-09-28T07:41:16.912Z,9.95
2022-09-28T07:43:44.923Z,7.78
2022-09-28T07:46:13.005Z,6.70
2022-09-28T07:48:42.140Z,8.85
2022-09-28T07:51:10.750Z,8.82
2022-09-28T07:53:39.066Z,9.98
2022-09-28T07:56:09.415Z,11.55
2022-09-28T07:58:38.806Z,10.57
2022-09-28T08:01:08.284Z,8.52
2022-09-28T08:03:36.438Z,8.55
2022-09-28T08:06:07.036Z,8.80
2022-09-28T08:08:35.767Z,9.38
2022-09-28T08:11:03.957Z,8.85
2022-09-28T08:13:33.185Z,9.60
2022-09-28T08:16:02.761Z,10.77
2022-09-28T08:18:32.303Z,8.95
2022-09-28T08:21:17.650Z,12.80
2022-09-28T08:23:45.634Z,7.93
2022-09-28T08:26:15.703Z,12.05
2022-09-28T08:28:47.642Z,10.73
2022-09-28T08:31:15.712Z,8.90
2022-09-28T08:33:43.691Z,9.45
2022-09-28T08:36:11.785Z,8.32
2022-09-28T08:38:39.741Z,11.32
2022-09-28T08:41:17.105Z,10.65
2022-09-28T08:44:01.057Z,7.07
2022-09-28T08:46:32.789Z,10.60
2022-09-28T08:49:24.945Z,6.30
2022-09-28T08:51:56.530Z,8.33
2022-09-28T08:54:30.313Z,9.23
2022-09-28T08:57:00.889Z,7.50
2022-09-28T08:59:41.687Z,6.25
2022-09-28T09:02:16.030Z,5.10
2022-09-28T09:04:44.729Z,4.85
2022-09-28T09:07:23.124Z,6.65
2022-09-28T09:09:58.251Z,4.53
2022-09-28T09:12:33.552Z,3.20
2022-09-28T09:15:19.971Z,6.10
2022-09-28T09:17:52.785Z,4.25
2022-09-28T09:20:27.035Z,3.45
2022-09-28T09:23:00.666Z,4.38
2022-09-28T09:25:30.152Z,3.55
2022-09-28T09:28:15.175Z,2.42
2022-09-28T09:30:51.473Z,2.13
2022-09-28T09:33:43.748Z,4.93
2022-09-28T09:36:19.693Z,4.28
2022-09-28T09:38:58.066Z,1.85
2022-09-28T09:41:37.336Z,3.55
2022-09-28T09:44:29.267Z,3.58
2022-09-28T09:47:02.063Z,2.20
2022-09-28T09:49:34.317Z,3.35
2022-09-28T09:52:07.125Z,3.35
2022-09-28T09:54:38.845Z,4.13
2022-09-28T09:57:11.326Z,5.60
2022-09-28T09:59:41.332Z,2.97
2022-09-28T10:02:24.599Z,2.85
2022-09-28T10:04:55.785Z,3.30
2022-09-28T10:07:26.660Z,3.20
2022-09-28T10:09:58.244Z,3.90
2022-09-28T10:12:26.353Z,3.57
2022-09-28T10:14:56.084Z,3.20
2022-09-28T10:17:27.638Z,2.30
2022-09-28T10:19:56.883Z,2.73
2022-09-28T10:22:28.021Z,3.55
2022-09-28T10:24:57.517Z,4.60
2022-09-28T10:27:29.188Z,4.57
2022-09-28T10:30:01.784Z,2.17
2022-09-28T10:32:38.628Z,3.90
2022-09-28T10:35:32.280Z,2.95
2022-09-28T10:38:03.269Z,4.70
2022-09-28T10:40:40.376Z,7.47
2022-09-28T10:43:19.008Z,2.80
2022-09-28T10:45:47.177Z,3.47
2022-09-28T10:48:20.446Z,3.40
2022-09-28T10:51:02.745Z,2.80
2022-09-28T10:53:30.875Z,3.60
2022-09-28T10:56:02.497Z,2.80
2022-09-28T10:58:38.005Z,5.10
2022-09-28T11:01:11.482Z,5.47
2022-09-28T11:03:50.560Z,5.43
2022-09-28T11:06:25.248Z,4.10
2022-09-28T11:08:54.633Z,3.33
2022-09-28T11:11:23.361Z,3.90
2022-09-28T11:13:52.615Z,3.38
2022-09-28T11:16:29.376Z,4.22
2022-09-28T11:19:00.090Z,4.40
2022-09-28T11:21:31.120Z,3.70
2022-09-28T11:24:05.747Z,3.83
2022-09-28T11:26:42.192Z,3.90
2022-09-28T11:29:21.391Z,7.03
2022-09-28T11:31:49.532Z,3.38
2022-09-28T11:34:31.045Z,2.90
2022-09-28T11:37:27.303Z,2.70
2022-09-28T11:40:02.716Z,4.85
2022-09-28T11:42:39.917Z,3.60
2022-09-28T11:45:20.701Z,3.42
2022-09-28T11:47:53.198Z,3.78
2022-09-28T11:50:30.625Z,3.10
2022-09-28T11:53:04.378Z,3.35
2022-09-28T11:55:36.154Z,6.00
2022-09-28T11:58:07.377Z,5.05
2022-09-28T12:00:37.916Z,3.25
2022-09-28T12:03:09.228Z,2.90
2022-09-28T12:05:43.498Z,4.43
2022-09-28T12:08:16.837Z,4.85
2022-09-28T12:10:48.467Z,3.95
2022-09-28T12:13:20.459Z,3.15
2022-09-28T12:18:43.441Z,3.38
2022-09-28T12:21:24.907Z,3.13
2022-09-28T12:23:56.010Z,2.85
2022-09-28T12:26:32.504Z,2.63
2022-09-28T12:29:07.509Z,2.45
2022-09-28T12:31:39.303Z,4.68
2022-09-28T12:34:07.330Z,4.47
2022-09-28T12:36:44.962Z,4.10
2022-09-28T12:39:53.442Z,2.10
2022-09-28T12:42:30.080Z,2.22
2022-09-28T12:45:21.273Z,1.40
2022-09-28T12:48:09.353Z,2.53
2022-09-28T12:50:46.444Z,5.07
2022-09-28T12:53:33.576Z,2.78
2022-09-28T12:56:03.427Z,2.03
2022-09-28T12:58:50.949Z,2.97
2022-09-28T13:01:35.668Z,2.42
2022-09-28T13:04:22.546Z,2.20
2022-09-28T13:06:58.093Z,2.78
2022-09-28T13:09:30.915Z,2.10
2022-09-28T13:12:11.353Z,2.47
2022-09-28T13:15:00.501Z,1.75
2022-09-28T13:17:39.839Z,1.52
2022-09-28T13:20:16.835Z,2.90
2022-09-28T13:22:50.542Z,2.08
2022-09-28T13:25:21.826Z,2.22
2022-09-28T13:27:53.074Z,3.25
2022-09-28T13:30:21.180Z,2.00
2022-09-28T13:32:49.901Z,2.28
2022-09-28T13:35:19.482Z,5.10
2022-09-28T13:37:48.693Z,2.88
2022-09-28T13:40:16.658Z,3.50
2022-09-28T13:43:00.344Z,3.42
2022-09-28T13:46:03.172Z,2.60
2022-09-28T13:51:16.892Z,3.97
2022-09-28T13:54:12.625Z,7.28
2022-09-28T13:56:46.322Z,1.98
2022-09-28T13:59:20.791Z,3.22
2022-09-28T14:01:55.625Z,1.45
2022-09-28T14:04:26.137Z,1.50
2022-09-28T14:06:57.050Z,1.88
2022-09-28T14:09:42.148Z,4.35
2022-09-28T14:12:28.894Z,3.78
2022-09-28T14:14:58.231Z,4.57
2022-09-28T14:17:59.418Z,5.85
2022-09-28T14:20:28.139Z,3.63
2022-09-28T14:23:19.047Z,3.00
2022-09-28T14:26:14.476Z,4.50
2022-09-28T14:28:53.860Z,2.28
2022-09-28T14:31:26.696Z,1.70
2022-09-28T14:33:57.007Z,1.70
2022-09-28T14:36:41.184Z,3.25
2022-09-28T14:39:38.468Z,2.47
2022-09-28T14:42:12.644Z,6.88
2022-09-28T14:45:18.140Z,3.67
2022-09-28T14:48:05.933Z,1.80
2022-09-28T14:50:34.113Z,1.70
2022-09-28T14:53:06.118Z,2.03
2022-09-28T14:55:41.908Z,1.63
2022-09-28T14:58:17.774Z,1.25
2022-09-28T15:00:46.951Z,1.75
2022-09-28T15:03:17.155Z,1.80
2022-09-28T15:05:48.043Z,4.18
2022-09-28T15:08:18.016Z,1.67
2022-09-28T15:10:47.338Z,1.95
2022-09-28T15:13:21.840Z,2.30
2022-09-28T15:15:53.051Z,4.05
2022-09-28T15:18:47.695Z,2.92
2022-09-28T15:21:16.363Z,3.42
2022-09-28T15:23:45.595Z,4.18
2022-09-28T15:26:23.276Z,4.45
2022-09-28T15:28:51.554Z,3.55
2022-09-28T15:31:22.109Z,7.93
2022-09-28T15:34:09.042Z,3.55
2022-09-28T15:36:39.290Z,3.75
2022-09-28T15:39:12.578Z,4.45
2022-09-28T15:41:48.649Z,5.93
2022-09-28T15:44:29.047Z,4.82
2022-09-28T15:47:07.626Z,3.38
2022-09-28T15:49:42.090Z,5.25
2022-09-28T15:52:24.347Z,3.28
2022-09-28T15:54:53.065Z,4.70
2022-09-28T15:57:34.197Z,4.63
2022-09-28T16:00:02.600Z,3.58
2022-09-28T16:02:30.778Z,4.10
2022-09-28T16:05:01.565Z,5.95
2022-09-28T16:07:38.378Z,7.55
2022-09-28T16:10:33.712Z,5.85
2022-09-28T16:13:15.517Z,5.88
2022-09-28T16:15:43.691Z,5.35
2022-09-28T16:18:23.421Z,6.10
2022-09-28T16:20:52.986Z,7.97
2022-09-28T16:23:26.807Z,5.55
2022-09-28T16:25:59.663Z,6.75
2022-09-28T16:28:51.781Z,4.97
2022-09-28T16:31:34.359Z,10.18
2022-09-28T16:34:11.849Z,5.30
2022-09-28T16:36:45.242Z,6.70
2022-09-28T16:39:14.284Z,6.70
2022-09-28T16:41:45.833Z,6.95
2022-09-28T16:44:17.202Z,8.63
2022-09-28T16:46:45.872Z,4.80
2022-09-28T16:49:18.677Z,5.53
2022-09-28T16:51:47.861Z,9.10
2022-09-28T16:54:35.848Z,7.68
2022-09-28T16:57:06.523Z,7.30
2022-09-28T16:59:34.603Z,7.05
2022-09-28T17:02:02.579Z,11.23
2022-09-28T17:04:30.737Z,8.85
2022-09-28T17:06:59.038Z,6.93
2022-09-28T17:09:27.150Z,15.77
2022-09-28T17:11:57.021Z,6.05
2022-09-28T17:14:26.314Z,9.88
2022-09-28T17:17:14.983Z,13.95
2022-09-28T17:19:42.840Z,13.23
2022-09-28T17:22:10.891Z,6.20
2022-09-28T17:24:38.882Z,6.53
2022-09-28T17:27:07.821Z,5.68
2022-09-28T17:29:37.080Z,7.93
2022-09-28T17:32:08.330Z,8.13
2022-09-28T17:34:36.323Z,7.35
2022-09-28T17:37:04.457Z,8.13
2022-09-28T17:39:32.479Z,7.60
2022-09-28T17:42:00.411Z,8.32
2022-09-28T17:44:28.433Z,6.15
2022-09-28T17:46:57.956Z,7.85
2022-09-28T17:49:25.875Z,7.88
2022-09-28T17:51:54.179Z,8.80
2022-09-28T17:54:22.629Z,6.70
2022-09-28T17:56:50.865Z,6.00
2022-09-28T17:59:19.549Z,6.63
2022-09-28T18:01:48.328Z,5.97
2022-09-28T18:04:47.264Z,6.25
2022-09-28T18:07:06.579Z,7.50
2022-09-28T18:09:34.771Z,7.22
2022-09-28T18:12:05.581Z,6.43
2022-09-28T18:14:33.844Z,6.93
2022-09-28T18:17:02.306Z,5.55
2022-09-28T18:19:32.582Z,6.30
2022-09-28T18:22:01.371Z,6.88
2022-09-28T18:24:29.960Z,5.80
2022-09-28T18:26:58.272Z,5.45
2022-09-28T18:29:28.973Z,6.63
2022-09-28T18:32:00.405Z,5.18
2022-09-28T18:34:28.796Z,5.68
2022-09-28T18:36:58.160Z,4.93
2022-09-28T18:39:26.617Z,4.68
2022-09-28T18:41:54.748Z,4.82
2022-09-28T18:44:23.160Z,5.25
2022-09-28T18:46:51.622Z,4.97
2022-09-28T18:49:21.292Z,7.47
2022-09-28T18:51:49.429Z,7.53
2022-09-28T18:54:18.994Z,7.22
2022-09-28T18:56:47.088Z,6.88
2022-09-28T18:59:15.609Z,6.72
2022-09-28T19:01:43.883Z,6.80
2022-09-28T19:04:13.466Z,7.70
2022-09-28T19:06:44.428Z,6.55
2022-09-28T19:09:13.197Z,5.88
2022-09-28T19:11:42.560Z,7.70
2022-09-28T19:14:14.969Z,7.13
2022-09-28T19:16:43.572Z,7.85
2022-09-28T19:19:12.846Z,8.55
2022-09-28T19:21:40.923Z,7.55
2022-09-28T19:24:10.053Z,9.15
2022-09-28T19:26:38.182Z,6.88
2022-09-28T19:29:07.567Z,9.00
2022-09-28T19:31:35.686Z,9.90
2022-09-28T19:34:04.579Z,10.98
2022-09-28T19:36:32.729Z,11.02
2022-09-28T19:39:02.877Z,9.23
2022-09-28T19:41:44.366Z,10.00
2022-09-28T19:44:19.355Z,9.85
2022-09-28T19:46:47.657Z,10.77
2022-09-28T19:49:19.350Z,10.20
2022-09-28T19:52:11.042Z,9.60
2022-09-28T19:54:38.117Z,9.57
2022-09-28T19:57:07.743Z,10.13
2022-09-28T19:59:38.124Z,10.48
2022-09-28T20:02:07.299Z,7.72
2022-09-28T20:04:35.491Z,10.02
2022-09-28T20:07:03.705Z,7.35
2022-09-28T20:09:32.423Z,9.75
2022-09-28T20:12:00.456Z,8.98
2022-09-28T20:14:33.103Z,10.93
2022-09-28T20:17:07.217Z,8.48
2022-09-28T20:19:35.344Z,11.40
2022-09-28T20:22:03.604Z,10.60
2022-09-28T20:24:32.160Z,11.98
2022-09-28T20:27:01.467Z,7.70
2022-09-28T20:29:31.583Z,12.25
2022-09-28T20:32:00.393Z,7.60
2022-09-28T20:34:29.741Z,8.05
2022-09-28T20:36:57.731Z,9.70
2022-09-28T20:39:25.916Z,10.38
2022-09-28T20:41:56.300Z,10.07
2022-09-28T20:44:24.237Z,14.18
2022-09-28T20:46:52.574Z,10.90
2022-09-28T20:49:20.544Z,14.55
2022-09-28T20:51:49.951Z,11.73
2022-09-28T20:54:18.030Z,10.82
2022-09-28T20:56:48.085Z,14.07
2022-09-28T20:59:16.418Z,11.25
2022-09-28T21:01:44.678Z,11.00
2022-09-28T21:04:12.819Z,10.48
2022-09-28T21:06:42.877Z,10.55
2022-09-28T21:09:19.046Z,9.20
2022-09-28T21:11:48.139Z,9.55
2022-09-28T21:14:16.190Z,14.15
2022-09-28T21:16:44.224Z,14.68
2022-09-28T21:19:12.794Z,14.38
2022-09-28T21:21:40.752Z,12.07
2022-09-28T21:24:09.201Z,12.48
2022-09-28T21:26:41.722Z,10.10
2022-09-28T21:29:12.784Z,9.95
2022-09-28T21:31:42.353Z,13.57
2022-09-28T21:34:13.181Z,10.73
2022-09-28T21:36:41.299Z,9.98
2022-09-28T21:39:10.496Z,12.85
2022-09-28T21:44:32.851Z,12.50
2022-09-28T21:47:00.936Z,9.43
2022-09-28T21:49:28.940Z,12.55
2022-09-28T21:51:57.032Z,11.75
2022-09-28T21:54:25.126Z,11.57
2022-09-28T21:56:54.563Z,11.55
2022-09-28T21:59:22.592Z,11.60
2022-09-28T22:01:50.757Z,10.60
2022-09-28T22:04:18.971Z,10.13
2022-09-28T22:06:47.085Z,10.95
2022-09-28T22:09:15.269Z,11.27
2022-09-28T22:11:43.412Z,12.82
2022-09-28T22:14:12.872Z,12.85
2022-09-28T22:16:41.197Z,16.27
2022-09-28T22:19:09.283Z,12.80
2022-09-28T22:21:37.340Z,12.57
2022-09-28T22:24:07.108Z,14.07
2022-09-28T22:26:36.367Z,13.43
2022-09-28T22:29:06.345Z,17.00
2022-09-28T22:31:37.302Z,12.43
2022-09-28T22:34:06.008Z,13.63
2022-09-28T22:36:34.304Z,23.60
2022-09-28T22:39:02.313Z,21.45
2022-09-28T22:41:30.405Z,22.05
2022-09-28T22:43:58.960Z,17.67
2022-09-28T22:46:28.360Z,21.73
2022-09-28T22:48:59.093Z,22.55
2022-09-28T22:51:28.513Z,24.83
2022-09-28T22:53:56.906Z,20.08
2022-09-28T22:56:25.532Z,22.30
2022-09-28T22:58:53.826Z,21.35
2022-09-28T23:01:23.260Z,21.92
2022-09-28T23:03:51.884Z,23.25
2022-09-28T23:06:22.523Z,26.00
2022-09-28T23:08:52.911Z,24.88
2022-09-28T23:11:21.280Z,24.17
2022-09-28T23:13:50.481Z,23.50
2022-09-28T23:16:18.915Z,27.27
2022-09-28T23:18:48.875Z,28.73
2022-09-28T23:21:18.651Z,20.58
2022-09-28T23:23:52.596Z,25.60
2022-09-28T23:26:22.163Z,22.13
2022-09-28T23:28:50.404Z,21.60
2022-09-28T23:31:20.061Z,19.80
2022-09-28T23:33:48.426Z,18.00
2022-09-28T23:36:17.561Z,20.70
2022-09-28T23:38:45.559Z,18.65
2022-09-28T23:41:14.851Z,17.70
2022-09-28T23:43:42.769Z,25.50
2022-09-28T23:46:10.770Z,22.08
2022-09-28T23:48:38.791Z,17.63
2022-09-28T23:51:07.877Z,18.08
2022-09-28T23:53:35.867Z,19.60
2022-09-28T23:56:04.167Z,21.38
2022-09-28T23:58:33.419Z,20.80
